createdAt,value
2019-04-10T00:01:59.884Z,11.03
2019-04-10T00:04:29.602Z,11.27
2019-04-10T00:07:10.512Z,11.23
2019-04-10T00:09:29.019Z,11.50
2019-04-10T00:11:58.913Z,11.07
2019-04-10T00:14:28.277Z,11.20
2019-04-10T00:16:57.495Z,11.40
2019-04-10T00:19:26.711Z,11.03
2019-04-10T00:21:55.728Z,11.83
2019-04-10T00:24:24.554Z,11.10
2019-04-10T00:26:54.300Z,11.47
2019-04-10T00:29:23.121Z,11.60
2019-04-10T00:31:51.853Z,11.10
2019-04-10T00:34:21.234Z,11.17
2019-04-10T00:36:51.158Z,11.53
2019-04-10T00:39:20.150Z,11.00
2019-04-10T00:41:49.138Z,10.40
2019-04-10T00:44:17.901Z,10.57
2019-04-10T00:46:46.647Z,11.77
2019-04-10T00:49:15.614Z,12.57
2019-04-10T00:51:44.412Z,12.07
2019-04-10T00:54:14.591Z,11.70
2019-04-10T00:56:43.510Z,12.20
2019-04-10T00:59:12.452Z,11.87
2019-04-10T01:01:41.211Z,11.53
2019-04-10T01:04:10.616Z,11.73
2019-04-10T01:06:39.890Z,12.27
2019-04-10T01:09:10.237Z,12.00
2019-04-10T01:11:39.242Z,12.23
2019-04-10T01:14:08.010Z,11.07
2019-04-10T01:16:37.745Z,11.47
2019-04-10T01:19:06.582Z,11.90
2019-04-10T01:21:36.488Z,11.27
2019-04-10T01:24:05.786Z,10.30
2019-04-10T01:26:34.971Z,11.27
2019-04-10T01:29:03.817Z,10.90
2019-04-10T01:31:32.585Z,11.20
2019-04-10T01:34:01.638Z,11.77
2019-04-10T01:36:31.134Z,11.00
2019-04-10T01:38:59.966Z,11.17
2019-04-10T01:41:28.720Z,11.20
2019-04-10T01:43:57.909Z,11.67
2019-04-10T01:46:26.676Z,10.60
2019-04-10T01:48:55.581Z,10.77
2019-04-10T01:51:25.490Z,11.27
2019-04-10T01:53:54.526Z,11.17
2019-04-10T01:56:30.165Z,10.73
2019-04-10T01:58:53.820Z,10.77
2019-04-10T02:01:26.212Z,11.87
2019-04-10T02:03:55.269Z,11.33
2019-04-10T02:06:25.229Z,11.43
2019-04-10T02:08:54.299Z,12.13
2019-04-10T02:11:24.229Z,14.50
2019-04-10T02:13:54.017Z,11.53
2019-04-10T02:16:22.912Z,14.13
2019-04-10T02:18:55.118Z,10.90
2019-04-10T02:21:23.494Z,11.50
2019-04-10T02:23:52.454Z,11.33
2019-04-10T02:26:21.397Z,10.80
2019-04-10T02:28:51.282Z,11.40
2019-04-10T02:31:26.332Z,11.07
2019-04-10T02:33:57.303Z,11.83
2019-04-10T02:36:27.576Z,12.00
2019-04-10T02:39:08.518Z,11.27
2019-04-10T02:41:27.925Z,11.50
2019-04-10T02:43:58.031Z,11.43
2019-04-10T02:46:27.001Z,11.60
2019-04-10T02:48:56.127Z,12.00
2019-04-10T02:51:27.063Z,12.63
2019-04-10T02:53:57.972Z,13.17
2019-04-10T02:56:28.547Z,12.10
2019-04-10T02:59:00.584Z,12.90
2019-04-10T03:01:29.670Z,13.63
2019-04-10T03:03:59.210Z,13.83
2019-04-10T03:06:29.296Z,14.80
2019-04-10T03:09:13.624Z,16.83
2019-04-10T03:11:28.823Z,13.83
2019-04-10T03:13:59.271Z,14.07
2019-04-10T03:16:32.835Z,13.17
2019-04-10T03:19:06.052Z,14.53
2019-04-10T03:21:35.436Z,13.00
2019-04-10T03:24:04.354Z,13.50
2019-04-10T03:26:33.973Z,13.53
2019-04-10T03:29:03.247Z,14.23
2019-04-10T03:31:34.201Z,12.93
2019-04-10T03:34:33.712Z,12.50
2019-04-10T03:37:02.765Z,13.07
2019-04-10T03:39:35.876Z,12.20
2019-04-10T03:44:25.007Z,13.83
2019-04-10T03:46:53.932Z,13.20
2019-04-10T03:49:23.194Z,14.47
2019-04-10T03:51:52.663Z,13.70
2019-04-10T03:54:21.448Z,13.43
2019-04-10T03:56:50.186Z,13.20
2019-04-10T03:59:20.114Z,13.80
2019-04-10T04:01:49.284Z,13.97
2019-04-10T04:04:18.073Z,13.40
2019-04-10T04:06:46.856Z,13.80
2019-04-10T04:09:16.221Z,14.03
2019-04-10T04:11:46.096Z,12.70
2019-04-10T04:14:14.909Z,13.67
2019-04-10T04:16:43.700Z,13.60
2019-04-10T04:19:13.467Z,14.00
2019-04-10T04:21:42.317Z,14.30
2019-04-10T04:24:11.391Z,13.63
2019-04-10T04:26:40.447Z,13.60
2019-04-10T04:29:09.675Z,13.43
2019-04-10T04:31:38.450Z,13.97
2019-04-10T04:34:07.208Z,13.30
2019-04-10T04:36:35.932Z,13.57
2019-04-10T04:39:17.974Z,13.83
2019-04-10T04:41:36.767Z,13.43
2019-04-10T04:44:06.031Z,13.70
2019-04-10T04:46:35.105Z,13.80
2019-04-10T04:49:03.862Z,14.03
2019-04-10T04:51:33.083Z,14.03
2019-04-10T04:54:02.093Z,14.57
2019-04-10T04:56:31.736Z,13.93
2019-04-10T04:59:01.480Z,13.63
2019-04-10T05:01:30.240Z,13.90
2019-04-10T05:03:58.987Z,13.87
2019-04-10T05:06:27.703Z,14.03
2019-04-10T05:08:56.859Z,14.13
2019-04-10T05:11:26.538Z,13.47
2019-04-10T05:13:55.973Z,13.70
2019-04-10T05:16:24.909Z,14.30
2019-04-10T05:18:54.123Z,13.60
2019-04-10T05:21:23.233Z,14.93
2019-04-10T05:23:52.056Z,13.80
2019-04-10T05:26:20.929Z,14.27
2019-04-10T05:28:50.727Z,15.07
2019-04-10T05:31:19.832Z,14.80
2019-04-10T05:33:49.132Z,14.93
2019-04-10T05:36:18.025Z,14.77
2019-04-10T05:38:46.828Z,15.37
2019-04-10T05:41:15.566Z,16.23
2019-04-10T05:43:44.778Z,15.13
2019-04-10T05:46:14.433Z,15.23
2019-04-10T05:48:44.093Z,16.00
2019-04-10T05:51:13.219Z,15.33
2019-04-10T05:53:42.984Z,15.37
2019-04-10T05:56:12.025Z,15.50
2019-04-10T05:58:40.937Z,16.23
2019-04-10T06:01:09.826Z,17.43
2019-04-10T06:03:38.785Z,18.97
2019-04-10T06:06:08.357Z,17.47
2019-04-10T06:08:37.361Z,17.13
2019-04-10T06:11:06.696Z,14.90
2019-04-10T06:13:36.712Z,14.77
2019-04-10T06:16:05.737Z,14.50
2019-04-10T06:18:35.459Z,13.83
2019-04-10T06:21:05.122Z,14.93
2019-04-10T06:23:33.996Z,15.03
2019-04-10T06:26:04.054Z,14.60
2019-04-10T06:28:34.387Z,14.73
2019-04-10T06:31:04.109Z,15.57
2019-04-10T06:33:34.021Z,15.67
2019-04-10T06:36:02.948Z,16.07
2019-04-10T06:38:31.832Z,15.30
2019-04-10T06:41:00.560Z,15.80
2019-04-10T06:43:29.365Z,15.87
2019-04-10T06:45:58.120Z,15.77
2019-04-10T06:48:27.872Z,16.13
2019-04-10T06:50:56.757Z,16.27
2019-04-10T06:53:25.497Z,16.47
2019-04-10T06:55:54.487Z,17.00
2019-04-10T06:58:23.728Z,16.53
2019-04-10T07:00:54.910Z,17.00
2019-04-10T07:03:25.281Z,17.87
2019-04-10T07:06:06.439Z,16.53
2019-04-10T07:08:27.514Z,16.20
2019-04-10T07:11:04.714Z,17.20
2019-04-10T07:13:28.124Z,15.87
2019-04-10T07:15:58.436Z,17.17
2019-04-10T07:18:28.397Z,16.13
2019-04-10T07:21:01.002Z,15.90
2019-04-10T07:23:30.363Z,15.47
2019-04-10T07:25:58.909Z,16.20
2019-04-10T07:28:27.846Z,17.10
2019-04-10T07:31:01.189Z,15.53
2019-04-10T07:33:27.285Z,15.40
2019-04-10T07:35:56.658Z,16.10
2019-04-10T07:38:26.619Z,15.93
2019-04-10T07:40:56.717Z,16.27
2019-04-10T07:43:27.571Z,17.40
2019-04-10T07:45:56.842Z,16.40
2019-04-10T07:48:27.177Z,15.63
2019-04-10T07:50:56.177Z,16.47
2019-04-10T07:53:24.929Z,15.93
2019-04-10T07:56:02.394Z,16.60
2019-04-10T07:58:24.216Z,16.67
2019-04-10T08:00:53.337Z,16.53
2019-04-10T08:03:22.889Z,16.80
2019-04-10T08:05:52.645Z,15.93
2019-04-10T08:08:21.775Z,18.37
2019-04-10T08:10:50.958Z,15.70
2019-04-10T08:13:20.400Z,15.93
2019-04-10T08:15:50.056Z,16.07
2019-04-10T08:18:19.048Z,16.53
2019-04-10T08:20:48.868Z,16.17
2019-04-10T08:23:17.674Z,17.03
2019-04-10T08:25:47.447Z,16.30
2019-04-10T08:28:16.269Z,16.83
2019-04-10T08:30:45.018Z,18.17
2019-04-10T08:33:14.119Z,16.43
2019-04-10T08:35:42.830Z,17.63
2019-04-10T08:38:11.570Z,16.97
2019-04-10T08:40:40.485Z,17.60
2019-04-10T08:43:09.394Z,17.87
2019-04-10T08:45:46.671Z,18.67
2019-04-10T08:48:10.015Z,19.47
2019-04-10T08:50:39.057Z,18.93
2019-04-10T08:53:07.802Z,18.90
2019-04-10T08:55:36.530Z,19.40
2019-04-10T08:58:06.193Z,18.47
2019-04-10T09:00:36.500Z,18.60
2019-04-10T09:03:05.305Z,17.27
2019-04-10T09:05:34.025Z,17.77
2019-04-10T09:08:02.883Z,17.67
2019-04-10T09:10:31.681Z,18.30
2019-04-10T09:13:00.430Z,18.23
2019-04-10T09:15:29.943Z,17.43
2019-04-10T09:17:59.733Z,17.27
2019-04-10T09:20:28.906Z,17.57
2019-04-10T09:23:15.496Z,17.67
2019-04-10T09:25:28.075Z,18.03
2019-04-10T09:27:57.934Z,17.87
2019-04-10T09:30:26.911Z,18.63
2019-04-10T09:32:57.018Z,18.00
2019-04-10T09:35:26.670Z,19.77
2019-04-10T09:37:56.589Z,18.00
2019-04-10T09:40:25.344Z,21.00
2019-04-10T09:42:54.081Z,20.03
2019-04-10T09:45:25.000Z,17.77
2019-04-10T09:47:53.332Z,18.30
2019-04-10T09:50:23.458Z,17.67
2019-04-10T09:52:53.051Z,19.03
2019-04-10T09:55:22.212Z,18.60
2019-04-10T09:57:51.835Z,21.20
2019-04-10T10:00:21.354Z,20.20
2019-04-10T10:02:50.741Z,18.00
2019-04-10T10:05:20.252Z,18.57
2019-04-10T10:07:49.144Z,18.83
2019-04-10T10:10:18.119Z,18.30
2019-04-10T10:12:46.888Z,19.93
2019-04-10T10:15:16.880Z,19.13
2019-04-10T10:17:46.608Z,18.53
2019-04-10T10:20:16.152Z,19.10
2019-04-10T10:22:45.328Z,17.70
2019-04-10T10:25:15.232Z,17.70
2019-04-10T10:27:44.750Z,17.33
2019-04-10T10:30:15.467Z,18.03
2019-04-10T10:32:45.463Z,17.77
2019-04-10T10:35:14.674Z,18.03
2019-04-10T10:37:43.555Z,17.47
2019-04-10T10:40:15.040Z,17.80
2019-04-10T10:42:43.843Z,18.48
2019-04-10T10:45:12.935Z,17.80
2019-04-10T10:47:41.674Z,15.53
2019-04-10T10:50:11.092Z,14.93
2019-04-10T10:52:39.936Z,15.47
2019-04-10T10:55:09.708Z,14.80
2019-04-10T10:57:39.614Z,15.37
2019-04-10T11:00:11.908Z,15.07
2019-04-10T11:02:39.645Z,14.77
2019-04-10T11:05:09.017Z,15.50
2019-04-10T11:07:38.835Z,14.50
2019-04-10T11:10:08.604Z,14.63
2019-04-10T11:12:38.381Z,14.13
2019-04-10T11:15:07.805Z,14.73
2019-04-10T11:17:38.226Z,14.30
2019-04-10T11:20:10.112Z,14.80
2019-04-10T11:22:39.775Z,14.40
2019-04-10T11:25:08.967Z,14.77
2019-04-10T11:27:39.184Z,13.80
2019-04-10T11:30:08.869Z,14.03
2019-04-10T11:32:38.830Z,13.87
2019-04-10T11:35:07.850Z,14.27
2019-04-10T11:37:43.840Z,13.30
2019-04-10T11:40:08.742Z,13.80
2019-04-10T11:42:39.749Z,14.07
2019-04-10T11:45:10.773Z,14.53
2019-04-10T11:47:39.613Z,13.73
2019-04-10T11:50:13.403Z,14.40
2019-04-10T11:52:46.647Z,13.60
2019-04-10T11:55:15.603Z,14.57
2019-04-10T12:00:18.316Z,13.90
2019-04-10T12:02:47.059Z,13.23
2019-04-10T12:05:19.026Z,14.20
2019-04-10T12:08:10.959Z,13.53
2019-04-10T12:12:46.317Z,13.27
2019-04-10T12:15:17.087Z,14.27
2019-04-10T12:17:46.580Z,13.73
2019-04-10T12:20:16.738Z,13.73
2019-04-10T12:22:46.177Z,13.37
2019-04-10T12:25:16.875Z,13.70
2019-04-10T12:27:49.439Z,13.03
2019-04-10T12:30:19.388Z,13.57
2019-04-10T12:32:51.236Z,13.43
2019-04-10T12:35:20.481Z,14.27
2019-04-10T12:37:59.389Z,14.43
2019-04-10T12:40:21.439Z,13.53
2019-04-10T12:42:50.416Z,13.13
2019-04-10T12:45:20.053Z,13.27
2019-04-10T12:47:48.821Z,14.13
2019-04-10T12:50:18.364Z,13.13
2019-04-10T12:52:47.924Z,13.37
2019-04-10T12:55:20.531Z,13.43
2019-04-10T12:57:49.469Z,14.27
2019-04-10T13:00:23.624Z,13.77
2019-04-10T13:02:52.704Z,14.43
2019-04-10T13:05:21.892Z,14.17
2019-04-10T13:07:51.844Z,14.60
2019-04-10T13:10:23.540Z,13.93
2019-04-10T13:12:53.279Z,13.90
2019-04-10T13:15:23.371Z,15.93
2019-04-10T13:17:53.157Z,15.43
2019-04-10T13:20:22.004Z,14.93
2019-04-10T13:22:50.857Z,16.67
2019-04-10T13:25:19.841Z,15.83
2019-04-10T13:27:48.944Z,15.90
2019-04-10T13:30:18.741Z,15.33
2019-04-10T13:32:47.937Z,15.70
2019-04-10T13:35:18.035Z,15.53
2019-04-10T13:37:47.085Z,16.17
2019-04-10T13:40:16.001Z,16.50
2019-04-10T13:42:45.377Z,17.70
2019-04-10T13:45:17.397Z,16.10
2019-04-10T13:47:48.070Z,17.77
2019-04-10T13:50:17.362Z,17.80
2019-04-10T13:52:51.820Z,18.10
2019-04-10T13:55:20.086Z,16.87
2019-04-10T13:57:48.938Z,17.03
2019-04-10T14:00:28.081Z,16.83
2019-04-10T14:02:56.908Z,16.97
2019-04-10T14:05:32.207Z,17.23
2019-04-10T14:07:59.746Z,17.67
2019-04-10T14:10:29.486Z,16.97
2019-04-10T14:12:59.621Z,16.43
2019-04-10T14:15:30.292Z,17.03
2019-04-10T14:17:59.827Z,17.57
2019-04-10T14:20:29.103Z,18.07
2019-04-10T14:23:26.554Z,17.77
2019-04-10T14:26:04.656Z,16.90
2019-04-10T14:28:33.451Z,17.93
2019-04-10T14:31:07.461Z,17.37
2019-04-10T14:33:36.406Z,17.87
2019-04-10T14:36:05.607Z,17.63
2019-04-10T14:38:34.904Z,17.30
2019-04-10T14:41:03.839Z,16.97
2019-04-10T14:43:32.745Z,18.17
2019-04-10T14:46:02.668Z,19.20
2019-04-10T14:48:32.140Z,17.90
2019-04-10T14:51:01.059Z,16.97
2019-04-10T14:53:31.061Z,17.87
2019-04-10T14:56:00.445Z,18.30
2019-04-10T14:58:31.349Z,17.80
2019-04-10T15:00:59.886Z,17.90
2019-04-10T15:03:28.670Z,16.43
2019-04-10T15:05:59.828Z,15.57
2019-04-10T15:08:28.257Z,16.13
2019-04-10T15:10:58.253Z,15.67
2019-04-10T15:13:27.309Z,16.73
2019-04-10T15:15:56.697Z,17.83
2019-04-10T15:18:26.679Z,16.27
2019-04-10T15:20:56.561Z,16.07
2019-04-10T15:23:25.397Z,15.97
2019-04-10T15:25:55.414Z,16.43
2019-04-10T15:28:25.356Z,15.93
2019-04-10T15:30:55.046Z,15.73
2019-04-10T15:33:24.684Z,15.40
2019-04-10T15:35:53.538Z,14.47
2019-04-10T15:38:22.776Z,13.60
2019-04-10T15:40:52.584Z,12.70
2019-04-10T15:43:23.915Z,13.53
2019-04-10T15:45:52.576Z,13.47
2019-04-10T15:48:21.539Z,14.63
2019-04-10T15:50:51.725Z,13.23
2019-04-10T15:53:20.563Z,12.90
2019-04-10T15:55:49.642Z,13.63
2019-04-10T15:58:19.358Z,13.13
2019-04-10T16:00:50.232Z,12.93
2019-04-10T16:03:19.574Z,12.83
2019-04-10T16:05:48.520Z,14.93
2019-04-10T16:08:18.601Z,14.03
2019-04-10T16:10:53.539Z,12.90
2019-04-10T16:13:38.698Z,12.10
2019-04-10T16:16:33.992Z,11.83
2019-04-10T16:19:12.217Z,12.00
2019-04-10T16:21:41.478Z,11.63
2019-04-10T16:24:10.583Z,11.80
2019-04-10T16:26:39.397Z,13.90
2019-04-10T16:29:09.608Z,10.93
2019-04-10T16:31:39.649Z,11.07
2019-04-10T16:34:09.222Z,11.20
2019-04-10T16:36:38.144Z,11.13
2019-04-10T16:39:09.149Z,10.93
2019-04-10T16:41:38.100Z,10.63
2019-04-10T16:44:06.955Z,12.17
2019-04-10T16:46:36.171Z,11.07
2019-04-10T16:49:06.362Z,10.60
2019-04-10T16:51:36.462Z,10.67
2019-04-10T16:54:06.282Z,11.23
2019-04-10T16:56:36.015Z,11.00
2019-04-10T16:59:06.654Z,10.03
2019-04-10T17:01:35.465Z,10.97
2019-04-10T17:04:04.841Z,10.27
2019-04-10T17:06:34.484Z,9.10
2019-04-10T17:09:03.394Z,10.10
2019-04-10T17:11:33.434Z,8.80
2019-04-10T17:14:02.736Z,9.03
2019-04-10T17:16:31.750Z,7.73
2019-04-10T17:19:00.601Z,8.43
2019-04-10T17:21:31.109Z,9.23
2019-04-10T17:24:00.788Z,8.90
2019-04-10T17:26:30.884Z,8.67
2019-04-10T17:29:00.865Z,8.73
2019-04-10T17:31:32.917Z,8.87
2019-04-10T17:34:02.774Z,8.80
2019-04-10T17:36:32.797Z,9.40
2019-04-10T17:39:02.938Z,9.43
2019-04-10T17:41:31.698Z,8.00
2019-04-10T17:44:02.419Z,8.80
2019-04-10T17:46:31.306Z,8.43
2019-04-10T17:49:01.204Z,8.13
2019-04-10T17:51:30.453Z,8.20
2019-04-10T17:53:59.972Z,7.90
2019-04-10T17:56:29.019Z,7.73
2019-04-10T17:58:58.271Z,8.03
2019-04-10T18:01:27.279Z,7.37
2019-04-10T18:03:58.946Z,7.53
2019-04-10T18:06:31.173Z,7.80
2019-04-10T18:09:01.203Z,7.40
2019-04-10T18:11:30.154Z,7.63
2019-04-10T18:13:59.041Z,7.90
2019-04-10T18:16:27.866Z,7.67
2019-04-10T18:18:56.788Z,7.40
2019-04-10T18:21:25.992Z,7.97
2019-04-10T18:23:55.748Z,8.53
2019-04-10T18:26:25.715Z,8.63
2019-04-10T18:28:54.503Z,8.67
2019-04-10T18:31:25.171Z,8.47
2019-04-10T18:33:55.106Z,9.80
2019-04-10T18:36:24.389Z,10.23
2019-04-10T18:38:54.208Z,9.37
2019-04-10T18:41:24.205Z,9.30
2019-04-10T18:43:53.274Z,9.93
2019-04-10T18:46:22.481Z,9.87
2019-04-10T18:48:52.444Z,10.53
2019-04-10T18:51:21.553Z,9.40
2019-04-10T18:53:51.210Z,9.87
2019-04-10T18:56:20.816Z,9.00
2019-04-10T18:59:07.970Z,8.63
2019-04-10T19:01:56.175Z,9.20
2019-04-10T19:04:30.731Z,9.10
2019-04-10T19:07:01.270Z,10.00
2019-04-10T19:09:33.656Z,9.20
2019-04-10T19:12:04.397Z,8.93
2019-04-10T19:14:36.533Z,8.50
2019-04-10T19:17:06.750Z,9.57
2019-04-10T19:19:38.926Z,9.03
2019-04-10T19:22:08.065Z,10.13
2019-04-10T19:24:38.647Z,15.07
2019-04-10T19:27:07.700Z,14.23
2019-04-10T19:29:36.609Z,13.00
2019-04-10T19:32:07.958Z,11.93
2019-04-10T19:34:39.300Z,11.20
2019-04-10T19:37:08.197Z,11.10
2019-04-10T19:39:38.371Z,10.40
2019-04-10T19:42:11.195Z,10.03
2019-04-10T19:44:39.336Z,10.73
2019-04-10T19:47:08.866Z,10.60
2019-04-10T19:49:38.779Z,10.60
2019-04-10T19:52:08.615Z,9.93
2019-04-10T19:54:38.670Z,9.77
2019-04-10T19:57:08.949Z,9.77
2019-04-10T19:59:37.861Z,12.37
2019-04-10T20:02:06.764Z,10.67
2019-04-10T20:04:36.731Z,11.53
2019-04-10T20:07:06.843Z,11.77
2019-04-10T20:09:36.762Z,10.13
2019-04-10T20:12:06.569Z,11.70
2019-04-10T20:14:36.765Z,10.30
2019-04-10T20:17:05.962Z,10.37
2019-04-10T20:19:34.961Z,10.60
2019-04-10T20:22:06.278Z,11.53
2019-04-10T20:24:34.981Z,12.17
2019-04-10T20:27:03.955Z,11.70
2019-04-10T20:29:34.988Z,10.73
2019-04-10T20:32:04.165Z,10.30
2019-04-10T20:34:33.673Z,10.97
2019-04-10T20:37:07.714Z,11.43
2019-04-10T20:39:33.615Z,10.50
2019-04-10T20:42:03.657Z,12.20
2019-04-10T20:44:32.649Z,10.70
2019-04-10T20:47:02.525Z,10.47
2019-04-10T20:49:31.414Z,10.10
2019-04-10T20:52:00.418Z,11.77
2019-04-10T20:54:29.290Z,10.57
2019-04-10T20:56:59.108Z,11.40
2019-04-10T20:59:30.571Z,9.97
2019-04-10T21:01:59.938Z,9.40
2019-04-10T21:04:29.669Z,8.70
2019-04-10T21:06:58.659Z,8.47
2019-04-10T21:09:27.797Z,24.73
2019-04-10T21:12:03.794Z,13.53
2019-04-10T21:14:27.567Z,14.03
2019-04-10T21:16:56.376Z,9.23
2019-04-10T21:19:25.180Z,14.57
2019-04-10T21:21:53.920Z,11.13
2019-04-10T21:24:23.157Z,9.70
2019-04-10T21:26:52.764Z,10.77
2019-04-10T21:29:39.393Z,9.00
2019-04-10T21:32:34.486Z,8.90
2019-04-10T21:35:04.126Z,8.40
2019-04-10T21:37:33.022Z,8.40
2019-04-10T21:40:02.721Z,8.23
2019-04-10T21:42:31.647Z,8.07
2019-04-10T21:45:03.099Z,8.13
2019-04-10T21:47:31.965Z,7.17
2019-04-10T21:50:00.742Z,7.07
2019-04-10T21:52:30.593Z,6.73
2019-04-10T21:55:00.563Z,6.27
2019-04-10T21:57:32.672Z,6.90
2019-04-10T22:00:01.676Z,6.80
2019-04-10T22:02:31.575Z,6.90
2019-04-10T22:05:00.584Z,7.03
2019-04-10T22:07:45.762Z,7.37
2019-04-10T22:10:32.194Z,7.47
2019-04-10T22:13:01.556Z,6.67
2019-04-10T22:15:37.439Z,7.07
2019-04-10T22:18:09.408Z,6.80
2019-04-10T22:20:39.460Z,6.90
2019-04-10T22:23:09.803Z,7.67
2019-04-10T22:25:39.508Z,7.00
2019-04-10T22:28:08.949Z,7.13
2019-04-10T22:30:37.773Z,6.83
2019-04-10T22:33:07.629Z,7.37
2019-04-10T22:35:36.660Z,8.00
2019-04-10T22:38:05.683Z,7.20
2019-04-10T22:40:38.607Z,7.20
2019-04-10T22:43:11.738Z,6.90
2019-04-10T22:45:40.520Z,6.93
2019-04-10T22:48:09.509Z,7.40
2019-04-10T22:50:38.672Z,6.90
2019-04-10T22:53:08.747Z,6.87
2019-04-10T22:55:37.670Z,7.37
2019-04-10T22:58:06.638Z,7.07
2019-04-10T23:00:35.552Z,7.10
2019-04-10T23:03:05.622Z,6.80
2019-04-10T23:05:37.012Z,7.13
2019-04-10T23:08:07.341Z,6.80
2019-04-10T23:10:37.343Z,6.70
2019-04-10T23:13:08.891Z,7.30
2019-04-10T23:15:39.744Z,7.60
2019-04-10T23:18:10.000Z,7.10
2019-04-10T23:20:39.715Z,6.90
2019-04-10T23:23:08.764Z,7.30
2019-04-10T23:25:37.565Z,6.67
2019-04-10T23:28:07.455Z,7.23
2019-04-10T23:30:39.210Z,7.50
2019-04-10T23:33:08.174Z,7.60
2019-04-10T23:35:37.930Z,7.90
2019-04-10T23:38:07.116Z,7.10
2019-04-10T23:40:36.840Z,7.23
2019-04-10T23:43:12.957Z,7.40
2019-04-10T23:45:37.702Z,7.70
2019-04-10T23:48:06.777Z,8.00
2019-04-10T23:50:36.517Z,7.33
2019-04-10T23:53:08.623Z,7.47
2019-04-10T23:55:37.856Z,7.97
2019-04-10T23:58:07.707Z,7.70
